createdAt,value
2022-10-12T00:01:08.098Z,100023.88
2022-10-12T00:03:36.825Z,100020.91
2022-10-12T00:06:09.461Z,100012.28
2022-10-12T00:08:38.995Z,100008.66
2022-10-12T00:11:09.849Z,100011.25
2022-10-12T00:13:38.405Z,100010.75
2022-10-12T00:16:11.667Z,100018.03
2022-10-12T00:18:40.572Z,100012.78
2022-10-12T00:21:12.577Z,100013.69
2022-10-12T00:23:42.071Z,100019.88
2022-10-12T00:26:13.805Z,100021.94
2022-10-12T00:28:42.474Z,100015.34
2022-10-12T00:31:15.706Z,100018.47
2022-10-12T00:33:44.595Z,100018.78
2022-10-12T00:36:21.701Z,100014.47
2022-10-12T00:38:53.082Z,100009.50
2022-10-12T00:41:24.119Z,100013.38
2022-10-12T00:43:58.256Z,100014.84
2022-10-12T00:46:37.237Z,100011.84
2022-10-12T00:49:13.741Z,100013.25
2022-10-12T00:51:45.413Z,100021.09
2022-10-12T00:54:19.530Z,100018.91
2022-10-12T00:56:50.137Z,100013.97
2022-10-12T00:59:24.773Z,100022.06
2022-10-12T01:01:54.664Z,100023.56
2022-10-12T01:04:24.185Z,100024.75
2022-10-12T01:06:54.112Z,100022.88
2022-10-12T01:09:23.149Z,100022.13
2022-10-12T01:11:51.593Z,100015.50
2022-10-12T01:14:20.128Z,100020.53
2022-10-12T01:16:56.712Z,100011.16
2022-10-12T01:19:59.429Z,100017.09
2022-10-12T01:22:31.648Z,100022.13
2022-10-12T01:25:14.059Z,100023.31
2022-10-12T01:27:48.859Z,100015.88
2022-10-12T01:30:23.167Z,100028.72
2022-10-12T01:33:12.279Z,100024.88
2022-10-12T01:35:50.176Z,100025.47
2022-10-12T01:38:39.558Z,100025.53
2022-10-12T01:41:16.904Z,100021.13
2022-10-12T01:43:47.087Z,100019.75
2022-10-12T01:46:41.558Z,100024.22
2022-10-12T01:49:10.896Z,100015.63
2022-10-12T01:52:15.918Z,100016.72
2022-10-12T01:55:02.302Z,100019.22
2022-10-12T01:57:41.304Z,100014.19
2022-10-12T02:00:13.421Z,100012.78
2022-10-12T02:02:56.426Z,100021.66
2022-10-12T02:05:34.602Z,100009.09
2022-10-12T02:08:10.928Z,100010.75
2022-10-12T02:10:45.509Z,100013.25
2022-10-12T02:13:16.887Z,100012.94
2022-10-12T02:15:45.995Z,100005.72
2022-10-12T02:18:20.404Z,100007.69
2022-10-12T02:20:52.644Z,100015.72
2022-10-12T02:23:24.996Z,100006.84
2022-10-12T02:25:54.653Z,100010.75
2022-10-12T02:28:27.548Z,100011.88
2022-10-12T02:31:02.780Z,100011.94
2022-10-12T02:33:39.131Z,100005.34
2022-10-12T02:36:14.977Z,100010.34
2022-10-12T02:38:50.239Z,100012.91
2022-10-12T02:41:26.276Z,100016.56
2022-10-12T02:44:00.031Z,100015.50
2022-10-12T02:46:30.410Z,100008.34
2022-10-12T02:49:01.833Z,100010.34
2022-10-12T02:51:31.133Z,100021.50
2022-10-12T02:53:59.831Z,100023.81
2022-10-12T02:56:28.295Z,100028.88
2022-10-12T02:58:56.684Z,100021.22
2022-10-12T03:01:25.153Z,100022.13
2022-10-12T03:03:53.611Z,100020.50
2022-10-12T03:06:23.954Z,100027.56
2022-10-12T03:08:52.474Z,100025.38
2022-10-12T03:11:20.798Z,100016.88
2022-10-12T03:13:49.137Z,100028.84
2022-10-12T03:16:17.490Z,100013.91
2022-10-12T03:18:45.906Z,100019.19
2022-10-12T03:21:14.428Z,100014.22
2022-10-12T03:23:44.185Z,100018.38
2022-10-12T03:26:12.602Z,100018.44
2022-10-12T03:28:41.004Z,100020.66
2022-10-12T03:31:09.423Z,100020.41
2022-10-12T03:33:37.775Z,100015.72
2022-10-12T03:36:06.924Z,100015.19
2022-10-12T03:38:35.260Z,100018.53
2022-10-12T03:41:06.836Z,100013.56
2022-10-12T03:43:36.702Z,100017.44
2022-10-12T03:46:05.153Z,100020.22
2022-10-12T03:48:33.663Z,100015.50
2022-10-12T03:51:02.049Z,100020.22
2022-10-12T03:53:31.579Z,100013.00
2022-10-12T03:56:01.137Z,100011.38
2022-10-12T03:58:30.955Z,100011.38
2022-10-12T04:00:59.325Z,100020.78
2022-10-12T04:03:27.712Z,100010.84
2022-10-12T04:05:56.727Z,100012.22
2022-10-12T04:08:26.831Z,100006.97
2022-10-12T04:10:55.484Z,100021.13
2022-10-12T04:13:24.119Z,100022.25
2022-10-12T04:15:53.854Z,100023.34
2022-10-12T04:18:22.242Z,100024.47
2022-10-12T04:20:51.046Z,100022.81
2022-10-12T04:23:19.414Z,100019.22
2022-10-12T04:25:48.138Z,100021.44
2022-10-12T04:28:16.557Z,100022.28
2022-10-12T04:30:46.222Z,100015.91
2022-10-12T04:33:16.056Z,100022.28
2022-10-12T04:35:44.384Z,100018.91
2022-10-12T04:38:14.062Z,100018.34
2022-10-12T04:40:42.389Z,100008.63
2022-10-12T04:43:10.892Z,100008.91
2022-10-12T04:45:39.233Z,100009.13
2022-10-12T04:48:07.719Z,100008.25
2022-10-12T04:50:37.730Z,100013.25
2022-10-12T04:53:06.156Z,100009.06
2022-10-12T04:55:34.511Z,100009.59
2022-10-12T04:58:02.879Z,100017.31
2022-10-12T05:00:31.523Z,100008.19
2022-10-12T05:02:59.969Z,100019.00
2022-10-12T05:05:28.390Z,100013.75
2022-10-12T05:07:58.137Z,100018.47
2022-10-12T05:10:26.645Z,100017.91
2022-10-12T05:12:55.070Z,100015.41
2022-10-12T05:15:23.467Z,100016.28
2022-10-12T05:17:51.831Z,100027.97
2022-10-12T05:20:20.196Z,100021.63
2022-10-12T05:22:48.750Z,100027.19
2022-10-12T05:25:19.472Z,100024.75
2022-10-12T05:27:47.832Z,100030.31
2022-10-12T05:30:16.463Z,100026.78
2022-10-12T05:32:44.920Z,100042.31
2022-10-12T05:35:13.345Z,100040.97
2022-10-12T05:37:41.722Z,100040.13
2022-10-12T05:40:11.323Z,100041.75
2022-10-12T05:42:41.379Z,100038.72
2022-10-12T05:45:11.392Z,100047.59
2022-10-12T05:47:40.972Z,100041.44
2022-10-12T05:50:10.521Z,100052.50
2022-10-12T05:52:39.419Z,100054.16
2022-10-12T05:55:09.704Z,100054.09
2022-10-12T05:57:38.292Z,100049.06
2022-10-12T06:00:10.663Z,100038.78
2022-10-12T06:02:39.531Z,100038.44
2022-10-12T06:05:09.133Z,100046.16
2022-10-12T06:07:37.552Z,100053.91
2022-10-12T06:10:07.484Z,100056.34
2022-10-12T06:12:36.146Z,100062.69
2022-10-12T06:15:05.195Z,100058.72
2022-10-12T06:17:35.626Z,100068.72
2022-10-12T06:20:04.092Z,100072.88
2022-10-12T06:22:32.487Z,100074.25
2022-10-12T06:25:00.927Z,100079.72
2022-10-12T06:27:29.305Z,100071.66
2022-10-12T06:29:57.707Z,100082.72
2022-10-12T06:32:26.141Z,100082.97
2022-10-12T06:34:55.865Z,100070.97
2022-10-12T06:37:48.396Z,100078.16
2022-10-12T06:40:13.897Z,100080.59
2022-10-12T06:42:42.238Z,100073.84
2022-10-12T06:45:12.438Z,100079.06
2022-10-12T06:47:40.858Z,100084.56
2022-10-12T06:50:11.765Z,100093.16
2022-10-12T06:52:40.697Z,100090.06
2022-10-12T06:55:10.586Z,100089.47
2022-10-12T06:57:39.032Z,100085.78
2022-10-12T07:00:09.971Z,100096.06
2022-10-12T07:02:38.625Z,100088.78
2022-10-12T07:05:10.352Z,100093.44
2022-10-12T07:07:39.347Z,100095.03
2022-10-12T07:10:08.855Z,100107.75
2022-10-12T07:12:38.443Z,100094.31
2022-10-12T07:15:09.304Z,100095.41
2022-10-12T07:17:38.361Z,100099.16
2022-10-12T07:20:08.596Z,100095.72
2022-10-12T07:22:38.492Z,100090.84
2022-10-12T07:25:08.469Z,100097.09
2022-10-12T07:27:37.156Z,100090.53
2022-10-12T07:30:07.238Z,100080.06
2022-10-12T07:32:35.693Z,100077.66
2022-10-12T07:35:04.241Z,100075.53
2022-10-12T07:37:32.762Z,100082.59
2022-10-12T07:40:02.525Z,100088.59
2022-10-12T07:42:30.940Z,100093.47
2022-10-12T07:44:59.375Z,100089.78
2022-10-12T07:47:27.762Z,100086.91
2022-10-12T07:49:56.186Z,100092.09
2022-10-12T07:52:27.379Z,100089.75
2022-10-12T07:54:55.825Z,100099.16
2022-10-12T07:57:25.592Z,100084.59
2022-10-12T07:59:54.054Z,100087.31
2022-10-12T08:02:22.491Z,100085.22
2022-10-12T08:04:50.885Z,100082.59
2022-10-12T08:07:19.382Z,100068.53
2022-10-12T08:09:49.736Z,100075.97
2022-10-12T08:12:18.122Z,100082.28
2022-10-12T08:14:48.118Z,100064.28
2022-10-12T08:17:16.700Z,100062.56
2022-10-12T08:19:45.085Z,100068.66
2022-10-12T08:22:13.470Z,100063.88
2022-10-12T08:24:42.312Z,100062.25
2022-10-12T08:27:10.694Z,100064.72
2022-10-12T08:29:39.710Z,100065.53
2022-10-12T08:32:09.681Z,100067.50
2022-10-12T08:34:38.109Z,100067.22
2022-10-12T08:37:06.633Z,100068.84
2022-10-12T08:39:35.088Z,100067.41
2022-10-12T08:42:24.485Z,100066.56
2022-10-12T08:45:14.614Z,100067.63
2022-10-12T08:47:47.567Z,100068.34
2022-10-12T08:50:25.249Z,100069.09
2022-10-12T08:52:57.993Z,100073.41
2022-10-12T08:55:37.011Z,100077.53
2022-10-12T08:58:11.421Z,100072.47
2022-10-12T09:00:40.933Z,100074.75
2022-10-12T09:03:24.815Z,100078.47
2022-10-12T09:06:01.215Z,100077.13
2022-10-12T09:08:44.796Z,100072.06
2022-10-12T09:11:34.516Z,100073.41
2022-10-12T09:14:09.509Z,100074.13
2022-10-12T09:16:43.462Z,100074.03
2022-10-12T09:19:20.310Z,100074.53
2022-10-12T09:21:50.843Z,100068.19
2022-10-12T09:24:23.768Z,100064.69
2022-10-12T09:26:58.132Z,100068.88
2022-10-12T09:29:29.802Z,100071.41
2022-10-12T09:32:31.815Z,100065.22
2022-10-12T09:35:02.052Z,100069.00
2022-10-12T09:37:33.655Z,100064.47
2022-10-12T09:40:02.275Z,100069.13
2022-10-12T09:42:30.814Z,100065.41
2022-10-12T09:45:04.159Z,100067.75
2022-10-12T09:47:34.490Z,100070.25
2022-10-12T09:50:08.019Z,100073.13
2022-10-12T09:52:45.854Z,100073.81
2022-10-12T09:58:00.007Z,100071.97
2022-10-12T10:00:31.711Z,100064.47
2022-10-12T10:03:01.699Z,100058.81
2022-10-12T10:05:33.710Z,100055.91
2022-10-12T10:08:20.318Z,100057.94
2022-10-12T10:10:53.452Z,100064.25
2022-10-12T10:13:23.836Z,100062.94
2022-10-12T10:16:03.510Z,100057.44
2022-10-12T10:18:37.747Z,100056.25
2022-10-12T10:21:11.080Z,100049.69
2022-10-12T10:23:44.586Z,100056.31
2022-10-12T10:28:48.704Z,100046.91
2022-10-12T10:31:23.357Z,100036.19
2022-10-12T10:34:13.076Z,100039.16
2022-10-12T10:36:48.600Z,100040.97
2022-10-12T10:39:23.973Z,100038.03
2022-10-12T10:41:53.418Z,100042.44
2022-10-12T10:44:32.138Z,100035.66
2022-10-12T10:47:09.100Z,100036.06
2022-10-12T10:49:43.281Z,100031.94
2022-10-12T10:52:25.040Z,100035.19
2022-10-12T10:55:19.851Z,100029.03
2022-10-12T10:57:58.543Z,100035.41
2022-10-12T11:00:43.636Z,100030.75
2022-10-12T11:05:59.216Z,100013.22
2022-10-12T11:08:32.133Z,100015.41
2022-10-12T11:11:05.354Z,100009.53
2022-10-12T11:13:39.050Z,100009.56
2022-10-12T11:16:21.703Z,99997.06
2022-10-12T11:18:56.420Z,100001.25
2022-10-12T11:21:32.001Z,99999.19
2022-10-12T11:24:10.853Z,99995.78
2022-10-12T11:26:46.261Z,100003.19
2022-10-12T11:29:18.166Z,99993.34
2022-10-12T11:31:54.943Z,99992.44
2022-10-12T11:34:26.765Z,99998.66
2022-10-12T11:37:18.182Z,100001.09
2022-10-12T11:39:51.417Z,99997.09
2022-10-12T11:42:31.964Z,99981.44
2022-10-12T11:45:03.098Z,99982.16
2022-10-12T11:47:41.782Z,99976.28
2022-10-12T11:50:28.695Z,99980.63
2022-10-12T11:52:59.186Z,99973.59
2022-10-12T11:55:54.909Z,99975.84
2022-10-12T11:58:42.046Z,99965.66
2022-10-12T12:02:01.697Z,99966.78
2022-10-12T12:04:42.753Z,99965.56
2022-10-12T12:07:47.716Z,99967.09
2022-10-12T12:11:08.142Z,99960.88
2022-10-12T12:13:36.581Z,99969.25
2022-10-12T12:16:33.906Z,99963.91
2022-10-12T12:19:43.276Z,99966.00
2022-10-12T12:22:30.890Z,99961.38
2022-10-12T12:25:21.616Z,99962.03
2022-10-12T12:27:55.945Z,99964.94
2022-10-12T12:30:34.589Z,99955.63
2022-10-12T12:33:07.246Z,99953.28
2022-10-12T12:35:40.718Z,99963.50
2022-10-12T12:38:21.154Z,99956.13
2022-10-12T12:41:13.272Z,99955.75
2022-10-12T12:44:05.443Z,99959.13
2022-10-12T12:47:44.121Z,99958.53
2022-10-12T12:50:32.718Z,99952.06
2022-10-12T12:53:07.930Z,99945.66
2022-10-12T12:56:03.724Z,99944.75
2022-10-12T12:59:01.524Z,99948.88
2022-10-12T13:02:03.101Z,99947.56
2022-10-12T13:04:59.143Z,99949.31
2022-10-12T13:07:58.164Z,99945.22
2022-10-12T13:10:51.890Z,99945.91
2022-10-12T13:13:57.817Z,99947.09
2022-10-12T13:20:16.995Z,99947.31
2022-10-12T13:22:47.866Z,99948.34
2022-10-12T13:25:28.876Z,99940.75
2022-10-12T13:27:57.992Z,99949.84
2022-10-12T13:30:36.282Z,99943.84
2022-10-12T13:33:21.925Z,99944.06
2022-10-12T13:35:57.280Z,99943.59
2022-10-12T13:38:28.455Z,99947.34
2022-10-12T13:41:03.302Z,99948.28
2022-10-12T13:43:41.657Z,99941.63
2022-10-12T13:46:12.491Z,99939.09
2022-10-12T13:48:59.337Z,99944.84
2022-10-12T13:51:31.936Z,99937.94
2022-10-12T13:54:00.389Z,99933.69
2022-10-12T13:56:31.333Z,99930.59
2022-10-12T13:59:06.705Z,99929.41
2022-10-12T14:01:54.543Z,99935.78
2022-10-12T14:04:28.896Z,99935.41
2022-10-12T14:07:02.198Z,99940.56
2022-10-12T14:09:42.987Z,99944.63
2022-10-12T14:12:12.702Z,99941.03
2022-10-12T14:14:44.361Z,99933.38
2022-10-12T14:17:16.644Z,99942.81
2022-10-12T14:19:49.785Z,99945.59
2022-10-12T14:22:24.298Z,99935.41
2022-10-12T14:25:07.267Z,99938.09
2022-10-12T14:27:38.612Z,99942.25
2022-10-12T14:30:17.954Z,99938.34
2022-10-12T14:32:46.792Z,99937.22
2022-10-12T14:35:25.881Z,99934.09
2022-10-12T14:37:56.220Z,99919.94
2022-10-12T14:40:35.875Z,99930.84
2022-10-12T14:43:09.585Z,99930.69
2022-10-12T14:45:38.418Z,99921.31
2022-10-12T14:48:14.835Z,99915.09
2022-10-12T14:50:45.264Z,99915.41
2022-10-12T14:53:15.377Z,99925.31
2022-10-12T14:55:44.955Z,99912.47
2022-10-12T14:58:17.922Z,99912.66
2022-10-12T15:00:46.909Z,99918.44
2022-10-12T15:03:17.965Z,99913.84
2022-10-12T15:05:47.769Z,99915.19
2022-10-12T15:08:16.172Z,99914.19
2022-10-12T15:10:44.747Z,99906.00
2022-10-12T15:13:15.264Z,99917.66
2022-10-12T15:15:47.983Z,99919.66
2022-10-12T15:18:16.619Z,99925.28
2022-10-12T15:20:49.320Z,99931.56
2022-10-12T15:23:19.793Z,99919.72
2022-10-12T15:25:53.063Z,99917.44
2022-10-12T15:28:21.684Z,99918.91
2022-10-12T15:33:39.956Z,99919.88
2022-10-12T15:36:09.389Z,99919.69
2022-10-12T15:38:39.214Z,99928.72
2022-10-12T15:41:15.739Z,99926.22
2022-10-12T15:43:44.132Z,99924.84
2022-10-12T15:46:13.241Z,99919.03
2022-10-12T15:48:41.874Z,99915.72
2022-10-12T15:51:18.682Z,99923.88
2022-10-12T15:53:48.482Z,99924.97
2022-10-12T15:56:18.092Z,99922.47
2022-10-12T15:58:47.088Z,99924.41
2022-10-12T16:01:17.431Z,99916.25
2022-10-12T16:03:46.977Z,99918.69
2022-10-12T16:06:15.579Z,99920.78
2022-10-12T16:08:44.411Z,99920.09
2022-10-12T16:11:17.983Z,99909.88
2022-10-12T16:13:52.665Z,99913.78
2022-10-12T16:16:24.845Z,99906.91
2022-10-12T16:18:54.296Z,99917.25
2022-10-12T16:21:22.685Z,99911.16
2022-10-12T16:23:51.164Z,99909.50
2022-10-12T16:26:20.917Z,99909.50
2022-10-12T16:28:49.449Z,99909.50
2022-10-12T16:31:18.662Z,99905.38
2022-10-12T16:33:47.214Z,99910.44
2022-10-12T16:36:17.912Z,99908.28
2022-10-12T16:38:46.862Z,99915.84
2022-10-12T16:41:18.713Z,99917.81
2022-10-12T16:43:48.748Z,99916.16
2022-10-12T16:46:17.210Z,99921.72
2022-10-12T16:48:45.567Z,99921.72
2022-10-12T16:51:14.708Z,99918.44
2022-10-12T16:53:44.003Z,99915.97
2022-10-12T16:56:12.441Z,99923.50
2022-10-12T16:58:40.849Z,99924.63
2022-10-12T17:01:12.277Z,99934.16
2022-10-12T17:03:41.257Z,99928.59
2022-10-12T17:06:10.025Z,99935.63
2022-10-12T17:08:39.581Z,99936.75
2022-10-12T17:11:09.681Z,99939.03
2022-10-12T17:13:39.697Z,99938.22
2022-10-12T17:16:26.757Z,99939.38
2022-10-12T17:18:59.382Z,99942.16
2022-10-12T17:21:28.315Z,99938.03
2022-10-12T17:24:00.190Z,99928.00
2022-10-12T17:26:28.817Z,99927.81
2022-10-12T17:28:57.885Z,99927.09
2022-10-12T17:31:28.865Z,99930.03
2022-10-12T17:33:59.322Z,99933.41
2022-10-12T17:36:28.650Z,99935.69
2022-10-12T17:38:59.780Z,99944.34
2022-10-12T17:41:30.114Z,99932.69
2022-10-12T17:43:59.224Z,99931.06
2022-10-12T17:46:30.029Z,99934.97
2022-10-12T17:48:59.543Z,99936.94
2022-10-12T17:51:29.491Z,99933.34
2022-10-12T17:53:58.503Z,99938.09
2022-10-12T17:56:27.658Z,99942.31
2022-10-12T17:58:58.459Z,99938.19
2022-10-12T18:01:31.701Z,99933.22
2022-10-12T18:04:02.458Z,99935.50
2022-10-12T18:06:33.454Z,99936.66
2022-10-12T18:09:04.641Z,99937.28
2022-10-12T18:11:33.716Z,99945.97
2022-10-12T18:14:03.361Z,99939.06
2022-10-12T18:16:35.644Z,99938.84
2022-10-12T18:19:06.357Z,99940.00
2022-10-12T18:21:35.750Z,99940.00
2022-10-12T18:24:10.244Z,99938.00
2022-10-12T18:26:44.047Z,99932.13
2022-10-12T18:29:15.993Z,99931.81
2022-10-12T18:31:48.038Z,99925.91
2022-10-12T18:34:17.612Z,99935.31
2022-10-12T18:36:48.681Z,99934.69
2022-10-12T18:39:18.648Z,99934.91
2022-10-12T18:41:52.042Z,99936.22
2022-10-12T18:44:23.107Z,99935.06
2022-10-12T18:46:54.250Z,99942.81
2022-10-12T18:49:23.378Z,99938.25
2022-10-12T18:51:53.105Z,99941.56
2022-10-12T18:54:23.467Z,99939.31
2022-10-12T18:56:53.493Z,99943.72
2022-10-12T18:59:23.448Z,99938.97
2022-10-12T19:01:55.009Z,99928.97
2022-10-12T19:04:25.276Z,99928.97
2022-10-12T19:06:57.818Z,99925.66
2022-10-12T19:09:27.687Z,99934.69
2022-10-12T19:11:58.757Z,99931.88
2022-10-12T19:14:28.344Z,99930.53
2022-10-12T19:17:01.448Z,99933.63
2022-10-12T19:19:32.296Z,99930.00
2022-10-12T19:22:02.176Z,99933.13
2022-10-12T19:24:32.379Z,99935.72
2022-10-12T19:27:04.565Z,99932.72
2022-10-12T19:29:35.376Z,99935.63
2022-10-12T19:32:06.827Z,99940.50
2022-10-12T19:34:36.459Z,99940.59
2022-10-12T19:37:06.342Z,99942.06
2022-10-12T19:39:36.654Z,99945.44
2022-10-12T19:42:08.769Z,99942.47
2022-10-12T19:44:37.815Z,99934.22
2022-10-12T19:47:08.643Z,99941.88
2022-10-12T19:49:45.194Z,99945.06
2022-10-12T19:52:15.854Z,99943.50
2022-10-12T19:54:46.872Z,99944.75
2022-10-12T19:57:17.867Z,99938.75
2022-10-12T19:59:48.080Z,99942.75
2022-10-12T20:02:19.551Z,99935.94
2022-10-12T20:04:54.385Z,99940.78
2022-10-12T20:07:24.355Z,99933.94
2022-10-12T20:09:54.503Z,99937.47
2022-10-12T20:12:23.839Z,99932.56
2022-10-12T20:14:53.849Z,99928.56
2022-10-12T20:17:24.842Z,99940.91
2022-10-12T20:19:54.041Z,99934.63
2022-10-12T20:22:23.103Z,99933.03
2022-10-12T20:24:51.881Z,99936.19
2022-10-12T20:27:21.683Z,99938.22
2022-10-12T20:29:50.100Z,99937.47
2022-10-12T20:32:18.836Z,99941.16
2022-10-12T20:34:52.266Z,99936.00
2022-10-12T20:37:21.663Z,99929.34
2022-10-12T20:39:53.589Z,99933.34
2022-10-12T20:42:22.398Z,99938.72
2022-10-12T20:44:51.670Z,99947.13
2022-10-12T20:47:20.220Z,99940.53
2022-10-12T20:49:50.122Z,99944.16
2022-10-12T20:52:18.815Z,99939.50
2022-10-12T20:54:47.424Z,99944.34
2022-10-12T20:57:16.755Z,99947.50
2022-10-12T20:59:45.742Z,99943.94
2022-10-12T21:02:14.101Z,99948.75
2022-10-12T21:04:42.564Z,99948.50
2022-10-12T21:07:15.082Z,99948.31
2022-10-12T21:09:43.736Z,99942.19
2022-10-12T21:12:12.640Z,99946.41
2022-10-12T21:14:40.990Z,99945.84
2022-10-12T21:17:09.368Z,99938.09
2022-10-12T21:19:37.724Z,99945.09
2022-10-12T21:22:06.185Z,99947.34
2022-10-12T21:24:35.951Z,99948.22
2022-10-12T21:27:04.887Z,99947.69
2022-10-12T21:29:33.229Z,99945.50
2022-10-12T21:32:01.628Z,99933.88
2022-10-12T21:34:29.976Z,99932.50
2022-10-12T21:36:58.339Z,99934.75
2022-10-12T21:39:26.947Z,99937.81
2022-10-12T21:41:56.705Z,99931.19
2022-10-12T21:44:25.040Z,99931.78
2022-10-12T21:46:53.667Z,99926.84
2022-10-12T21:49:22.044Z,99933.81
2022-10-12T21:51:50.392Z,99934.38
2022-10-12T21:54:18.709Z,99928.63
2022-10-12T21:56:47.115Z,99930.03
2022-10-12T21:59:16.860Z,99928.97
2022-10-12T22:01:45.225Z,99936.75
2022-10-12T22:04:16.074Z,99930.13
2022-10-12T22:06:44.652Z,99929.59
2022-10-12T22:09:16.972Z,99938.81
2022-10-12T22:11:46.641Z,99939.38
2022-10-12T22:14:18.773Z,99937.50
2022-10-12T22:16:47.917Z,99943.66
2022-10-12T22:19:19.621Z,99932.28
2022-10-12T22:21:48.986Z,99942.03
2022-10-12T22:24:17.549Z,99931.53
2022-10-12T22:26:46.009Z,99928.19
2022-10-12T22:29:14.483Z,99930.75
2022-10-12T22:31:44.655Z,99937.97
2022-10-12T22:34:13.261Z,99932.69
2022-10-12T22:36:43.443Z,99931.06
2022-10-12T22:39:11.782Z,99930.53
2022-10-12T22:41:40.116Z,99926.06
2022-10-12T22:44:08.521Z,99923.59
2022-10-12T22:46:36.855Z,99932.47
2022-10-12T22:49:06.628Z,99924.97
2022-10-12T22:51:37.362Z,99922.19
2022-10-12T22:54:05.920Z,99919.97
2022-10-12T22:56:34.371Z,99927.97
2022-10-12T22:59:07.174Z,99919.34
2022-10-12T23:01:36.764Z,99919.66
2022-10-12T23:04:06.902Z,99917.09
2022-10-12T23:06:35.368Z,99917.66
2022-10-12T23:09:03.942Z,99916.22
2022-10-12T23:11:32.958Z,99918.09
2022-10-12T23:14:01.541Z,99919.47
2022-10-12T23:16:32.210Z,99921.69
2022-10-12T23:19:03.184Z,99917.19
2022-10-12T23:21:35.437Z,99918.53
2022-10-12T23:24:05.864Z,99920.44
2022-10-12T23:26:35.155Z,99916.78
2022-10-12T23:29:03.931Z,99912.31
2022-10-12T23:31:33.589Z,99916.41
2022-10-12T23:34:04.356Z,99913.91
2022-10-12T23:36:34.506Z,99912.75
2022-10-12T23:39:06.208Z,99915.53
2022-10-12T23:41:34.959Z,99909.19
2022-10-12T23:44:03.325Z,99914.22
2022-10-12T23:46:31.748Z,99912.31
2022-10-12T23:49:00.134Z,99907.63
2022-10-12T23:51:28.634Z,99914.34
2022-10-12T23:53:58.423Z,99909.16
2022-10-12T23:56:26.796Z,99903.13
2022-10-12T23:58:55.327Z,99913.16
